MHLM/SAP METAR and TAF weather

Enter ICAO airport designator
Station Type Date Time Source
MHLM METAR 2019/08/17 11:00 UTC NOAA

MHLM 171100Z 20003KT 9999 FEW022 SCT250 24/22 Q1012 A2989 NOSIG


Station Type Date Time Source
MHLM Decoded METAR 2019/08/17 11:00 UTC NOAA

Station name not available
Aug 17, 2019 - 07:00 AM EDT / 2019.08.17 1100 UTC
Wind: from the SSW (200 degrees) at 3 MPH (3 KT):0
Visibility: greater than 7 mile(s):0
Sky conditions: partly cloudy
Temperature: 75 F (24 C)
Dew Point: 71 F (22 C)
Relative Humidity: 88%
Pressure (altimeter): 29.89 in. Hg (1012 hPa)
ob: MHLM 171100Z 20003KT 9999 FEW022 SCT250 24/22 Q1012 A2989 NOSIG
cycle: 11

Station Type Date Time Source
MHLM TAF 2019/08/17 06:18 UTC NOAA

TAF TAF MHLM 170415Z 1706/1806 22004KT 9999 FEW026 BKN080 TX35/1720Z TN23/1712Z
BECMG 1716/1718 03012KT SCT028TCU
TEMPO 1722/1802 7000 -TSRA SCT028CB SCT090
BECMG 1802/1804 17004KT 9999 NSW FEW026CB BKN090

Example: see airport list